Time,TemperatureF,DewpointF,PressureIn,WindDirection,WindDirectionDegrees,WindSpeedMPH,WindSpeedGustMPH,Humidity,HourlyPrecipIn,Conditions,Clouds,dailyrainin,SoftwareType,DateUTC
2013-01-04 00:03:00,16.4,12.7,30.27,WSW,242,8.9,11.5,85,0.00,CLR,,0.00,WeatherDisplay:10.37,2013-01-04 06:03:00,
2013-01-04 00:08:00,16.1,12.4,30.26,WSW,237,9.2,10.4,85,0.00,CLR,,0.00,WeatherDisplay:10.37,2013-01-04 06:08:00,
2013-01-04 00:13:00,15.8,12.1,30.26,SW,235,7.9,9.2,85,0.00,CLR,,0.00,WeatherDisplay:10.37,2013-01-04 06:13:00,
2013-01-04 00:18:00,15.8,12.1,30.26,WSW,239,6.5,8.1,85,0.00,CLR,,0.00,WeatherDisplay:10.37,2013-01-04 06:18:00,
2013-01-04 00:23:00,15.5,11.8,30.26,WSW,239,6.4,9.2,85,0.00,CLR,,0.00,WeatherDisplay:10.37,2013-01-04 06:23:00,
2013-01-04 00:28:00,15.8,12.4,30.26,WSW,241,5.7,9.2,86,0.00,CLR,,0.00,WeatherDisplay:10.37,2013-01-04 06:28:00,
2013-01-04 00:33:00,16.1,12.7,30.26,WSW,246,8.6,11.5,86,0.00,CLR,,0.00,WeatherDisplay:10.37,2013-01-04 06:33:00,
2013-01-04 00:38:00,16.2,12.5,30.25,WSW,244,8.2,9.2,85,0.00,CLR,,0.00,WeatherDisplay:10.37,2013-01-04 06:38:00,
2013-01-04 00:43:00,16.2,12.5,30.25,WSW,246,7.8,9.2,85,0.00,CLR,,0.00,WeatherDisplay:10.37,2013-01-04 06:43:00,
2013-01-04 00:48:00,16.1,12.4,30.25,WSW,246,8.0,10.4,85,0.00,CLR,,0.00,WeatherDisplay:10.37,2013-01-04 06:48:00,
2013-01-04 00:53:00,15.9,12.2,30.25,WSW,247,8.1,9.2,85,0.00,CLR,,0.00,WeatherDisplay:10.37,2013-01-04 06:53:00,
2013-01-04 00:58:00,15.7,12.0,30.25,WSW,247,7.6,8.1,85,0.00,CLR,,0.00,WeatherDisplay:10.37,2013-01-04 06:58:00,
2013-01-04 01:04:00,15.3,11.6,30.25,WSW,242,8.0,9.2,85,0.00,CLR,,0.00,WeatherDisplay:10.37,2013-01-04 07:04:00,
2013-01-04 01:09:00,15.0,11.3,30.25,WSW,244,5.7,8.1,85,0.00,CLR,,0.00,WeatherDisplay:10.37,2013-01-04 07:09:00,
2013-01-04 01:14:00,14.8,11.1,30.24,WSW,247,6.4,8.1,85,0.00,CLR,,0.00,WeatherDisplay:10.37,2013-01-04 07:14:00,
2013-01-04 01:19:00,14.5,10.8,30.24,WSW,246,7.0,8.1,85,0.00,CLR,,0.00,WeatherDisplay:10.37,2013-01-04 07:19:00,
2013-01-04 01:24:00,14.3,10.9,30.24,WSW,247,6.4,8.1,86,0.00,CLR,,0.00,WeatherDisplay:10.37,2013-01-04 07:24:00,
2013-01-04 01:29:00,14.2,10.8,30.24,WSW,247,6.1,6.9,86,0.00,CLR,,0.00,WeatherDisplay:10.37,2013-01-04 07:29:00,
2013-01-04 01:34:00,14.0,10.6,30.24,WSW,248,6.4,8.1,86,0.00,CLR,,0.00,WeatherDisplay:10.37,2013-01-04 07:34:00,
2013-01-04 01:39:00,14.0,10.6,30.24,WSW,246,7.5,8.1,86,0.00,CLR,,0.00,WeatherDisplay:10.37,2013-01-04 07:39:00,
2013-01-04 01:44:00,13.8,10.4,30.24,WSW,244,7.3,8.1,86,0.00,CLR,,0.00,WeatherDisplay:10.37,2013-01-04 07:44:00,
2013-01-04 01:49:00,13.8,10.4,30.24,WSW,240,9.2,9.2,86,0.00,CLR,,0.00,WeatherDisplay:10.37,2013-01-04 07:49:00,
2013-01-04 01:54:00,13.9,10.5,30.24,WSW,237,8.8,9.2,86,0.00,CLR,,0.00,WeatherDisplay:10.37,2013-01-04 07:54:00,
2013-01-04 01:59:00,14.1,10.7,30.23,SW,236,10.7,10.7,86,0.00,CLR,,0.00,WeatherDisplay:10.37,2013-01-04 07:59:00,
2013-01-04 02:04:00,14.1,10.7,30.23,WSW,240,8.1,9.2,86,0.00,CLR,,0.00,WeatherDisplay:10.37,2013-01-04 08:04:00,
2013-01-04 02:09:00,14.1,10.7,30.23,WSW,242,7.7,9.2,86,0.00,CLR,,0.00,WeatherDisplay:10.37,2013-01-04 08:09:00,
2013-01-04 02:14:00,14.2,10.5,30.23,WSW,242,9.2,9.2,85,0.00,CLR,,0.00,WeatherDisplay:10.37,2013-01-04 08:14:00,
2013-01-04 02:19:00,14.1,10.4,30.23,WSW,238,9.1,9.2,85,0.00,CLR,,0.00,WeatherDisplay:10.37,2013-01-04 08:19:00,
2013-01-04 02:24:00,14.0,10.3,30.23,WSW,237,8.3,9.2,85,0.00,CLR,,0.00,WeatherDisplay:10.37,2013-01-04 08:24:00,
2013-01-04 02:29:00,13.9,10.2,30.23,WSW,238,9.6,10.4,85,0.00,CLR,,0.00,WeatherDisplay:10.37,2013-01-04 08:29:00,
2013-01-04 02:34:00,13.7,10.0,30.23,SW,234,7.8,10.4,85,0.00,CLR,,0.00,WeatherDisplay:10.37,2013-01-04 08:34:00,
2013-01-04 02:39:00,13.5,9.8,30.23,SW,234,8.0,9.7,85,0.00,CLR,,0.00,WeatherDisplay:10.37,2013-01-04 08:39:00,
2013-01-04 02:44:00,13.5,9.8,30.23,SW,233,8.7,9.2,85,0.00,CLR,,0.00,WeatherDisplay:10.37,2013-01-04 08:44:00,
2013-01-04 02:49:00,13.3,9.6,30.23,SW,236,8.4,9.2,85,0.00,CLR,,0.00,WeatherDisplay:10.37,2013-01-04 08:49:00,
2013-01-04 02:54:00,13.2,9.5,30.23,SW,236,9.3,10.4,85,0.00,CLR,,0.00,WeatherDisplay:10.37,2013-01-04 08:54:00,
2013-01-04 02:59:00,12.9,9.2,30.23,SW,232,9.3,9.7,85,0.00,CLR,,0.00,WeatherDisplay:10.37,2013-01-04 08:59:00,
2013-01-04 03:04:00,12.5,8.8,30.23,WSW,237,10.8,11.5,85,0.00,CLR,,0.00,WeatherDisplay:10.37,2013-01-04 09:04:00,
2013-01-04 03:09:00,12.2,8.6,30.22,WSW,238,9.8,11.9,85,0.00,CLR,,0.00,WeatherDisplay:10.37,2013-01-04 09:09:00,
2013-01-04 03:14:00,12.3,8.7,30.22,WSW,239,10.1,11.5,85,0.00,CLR,,0.00,WeatherDisplay:10.37,2013-01-04 09:14:00,
2013-01-04 03:19:00,12.3,8.7,30.22,WSW,240,11.2,11.9,85,0.00,CLR,,0.00,WeatherDisplay:10.37,2013-01-04 09:19:00,
2013-01-04 03:24:00,12.2,8.6,30.21,WSW,240,11.3,11.9,85,0.00,CLR,,0.00,WeatherDisplay:10.37,2013-01-04 09:24:00,
2013-01-04 03:29:00,12.2,8.6,30.21,SW,236,11.9,13.8,85,0.00,CLR,,0.00,WeatherDisplay:10.37,2013-01-04 09:29:00,
2013-01-04 03:34:00,12.2,8.6,30.21,WSW,242,8.7,9.2,85,0.00,CLR,,0.00,WeatherDisplay:10.37,2013-01-04 09:34:00,
2013-01-04 03:39:00,12.3,8.7,30.21,WSW,240,8.8,9.2,85,0.00,CLR,,0.00,WeatherDisplay:10.37,2013-01-04 09:39:00,
2013-01-04 03:44:00,12.4,8.7,30.21,WSW,240,8.8,9.2,85,0.00,CLR,,0.00,WeatherDisplay:10.37,2013-01-04 09:44:00,
2013-01-04 03:49:00,12.6,8.7,30.21,SW,234,9.6,10.4,84,0.00,CLR,,0.00,WeatherDisplay:10.37,2013-01-04 09:49:00,
2013-01-04 03:54:00,12.8,8.9,30.21,WSW,238,8.5,10.4,84,0.00,CLR,,0.00,WeatherDisplay:10.37,2013-01-04 09:54:00,
2013-01-04 03:59:00,12.8,8.6,30.21,WSW,239,9.5,10.4,83,0.00,CLR,,0.00,WeatherDisplay:10.37,2013-01-04 09:59:00,
2013-01-04 04:04:00,12.8,8.6,30.21,WSW,238,8.5,9.2,83,0.00,CLR,,0.00,WeatherDisplay:10.37,2013-01-04 10:04:00,
2013-01-04 04:09:00,12.6,8.4,30.21,WSW,240,8.2,9.2,83,0.00,CLR,,0.00,WeatherDisplay:10.37,2013-01-04 10:09:00,
2013-01-04 04:14:00,12.7,8.8,30.21,WSW,242,8.6,9.2,84,0.00,CLR,,0.00,WeatherDisplay:10.37,2013-01-04 10:14:00,
2013-01-04 04:19:00,12.5,8.3,30.21,WSW,240,7.4,9.2,83,0.00,CLR,,0.00,WeatherDisplay:10.37,2013-01-04 10:19:00,
2013-01-04 04:24:00,12.5,8.3,30.21,WSW,246,7.8,9.2,83,0.00,CLR,,0.00,WeatherDisplay:10.37,2013-01-04 10:24:00,
2013-01-04 04:29:00,12.5,8.3,30.21,WSW,248,7.4,8.6,83,0.00,CLR,,0.00,WeatherDisplay:10.37,2013-01-04 10:29:00,
2013-01-04 04:34:00,12.3,8.1,30.20,WSW,245,8.5,9.2,83,0.00,CLR,,0.00,WeatherDisplay:10.37,2013-01-04 10:34:00,
2013-01-04 04:39:00,12.3,8.1,30.20,WSW,248,6.2,8.1,83,0.00,CLR,,0.00,WeatherDisplay:10.37,2013-01-04 10:39:00,
2013-01-04 04:44:00,12.1,7.7,30.20,WSW,244,6.2,8.1,82,0.00,CLR,,0.00,WeatherDisplay:10.37,2013-01-04 10:44:00,
2013-01-04 04:49:00,12.0,7.8,30.21,WSW,244,6.4,8.1,83,0.00,CLR,,0.00,WeatherDisplay:10.37,2013-01-04 10:49:00,
2013-01-04 04:54:00,12.1,7.9,30.20,WSW,252,8.2,9.7,83,0.00,CLR,,0.00,WeatherDisplay:10.37,2013-01-04 10:54:00,
2013-01-04 04:59:00,11.9,7.5,30.20,WSW,244,7.4,9.2,82,0.00,CLR,,0.00,WeatherDisplay:10.37,2013-01-04 10:59:00,
2013-01-04 05:04:00,11.7,7.3,30.20,WSW,244,4.8,6.9,82,0.00,CLR,,0.00,WeatherDisplay:10.37,2013-01-04 11:04:00,
2013-01-04 05:09:00,11.5,7.1,30.20,WSW,250,6.2,8.1,82,0.00,CLR,,0.00,WeatherDisplay:10.37,2013-01-04 11:09:00,
2013-01-04 05:14:00,11.3,6.6,30.20,WSW,251,7.9,10.4,81,0.00,CLR,,0.00,WeatherDisplay:10.37,2013-01-04 11:14:00,
2013-01-04 05:19:00,10.9,6.2,30.20,WSW,252,6.3,6.9,81,0.00,CLR,,0.00,WeatherDisplay:10.37,2013-01-04 11:19:00,
2013-01-04 05:24:00,10.3,5.6,30.20,WSW,249,8.3,9.7,81,0.00,CLR,,0.00,WeatherDisplay:10.37,2013-01-04 11:24:00,
2013-01-04 05:29:00,9.8,5.4,30.20,WSW,250,6.3,6.9,82,0.00,CLR,,0.00,WeatherDisplay:10.37,2013-01-04 11:29:00,
2013-01-04 05:34:00,9.5,5.1,30.20,WSW,250,7.0,9.2,82,0.00,CLR,,0.00,WeatherDisplay:10.37,2013-01-04 11:34:00,
2013-01-04 05:39:00,9.6,5.2,30.20,WSW,250,6.9,8.1,82,0.00,CLR,,0.00,WeatherDisplay:10.37,2013-01-04 11:39:00,
2013-01-04 05:44:00,9.9,5.8,30.20,WSW,249,6.6,9.2,83,0.00,CLR,,0.00,WeatherDisplay:10.37,2013-01-04 11:44:00,
2013-01-04 05:49:00,10.3,5.9,30.20,WSW,251,6.8,8.1,82,0.00,CLR,,0.00,WeatherDisplay:10.37,2013-01-04 11:49:00,
2013-01-04 05:54:00,10.5,6.1,30.20,WSW,251,4.0,6.9,82,0.00,CLR,,0.00,WeatherDisplay:10.37,2013-01-04 11:54:00,
2013-01-04 05:59:00,10.6,6.2,30.20,WSW,251,5.9,8.1,82,0.00,CLR,,0.00,WeatherDisplay:10.37,2013-01-04 11:59:00,
2013-01-04 06:04:00,10.5,5.8,30.19,WSW,250,6.2,7.6,81,0.00,CLR,,0.00,WeatherDisplay:10.37,2013-01-04 12:04:00,
2013-01-04 06:09:00,10.7,6.3,30.19,WSW,250,6.7,9.2,82,0.00,CLR,,0.00,WeatherDisplay:10.37,2013-01-04 12:09:00,
2013-01-04 06:15:00,10.8,6.1,30.19,WSW,247,7.5,8.1,81,0.00,CLR,,0.00,WeatherDisplay:10.37,2013-01-04 12:15:00,
2013-01-04 06:20:00,10.6,5.6,30.19,WSW,247,8.8,9.2,80,0.00,CLR,,0.00,WeatherDisplay:10.37,2013-01-04 12:20:00,
2013-01-04 06:25:00,10.6,5.6,30.19,WSW,247,7.9,9.2,80,0.00,CLR,,0.00,WeatherDisplay:10.37,2013-01-04 12:25:00,
2013-01-04 06:30:00,10.6,5.6,30.19,WSW,246,7.4,9.2,80,0.00,CLR,,0.00,WeatherDisplay:10.37,2013-01-04 12:30:00,
2013-01-04 06:35:00,10.5,5.5,30.19,WSW,250,8.0,10.4,80,0.00,CLR,,0.00,WeatherDisplay:10.37,2013-01-04 12:35:00,
2013-01-04 06:40:00,10.3,5.4,30.19,WSW,252,5.7,6.9,80,0.00,CLR,,0.00,WeatherDisplay:10.37,2013-01-04 12:40:00,
2013-01-04 06:45:00,10.0,5.1,30.19,WSW,252,8.8,10.8,80,0.00,CLR,,0.00,WeatherDisplay:10.37,2013-01-04 12:45:00,
2013-01-04 06:50:00,9.9,5.0,30.19,WSW,244,8.6,9.2,80,0.00,CLR,,0.00,WeatherDisplay:10.37,2013-01-04 12:50:00,
2013-01-04 06:55:00,9.9,5.0,30.19,WSW,250,8.3,9.7,80,0.00,CLR,,0.00,WeatherDisplay:10.37,2013-01-04 12:55:00,
2013-01-04 07:00:00,10.1,5.2,30.19,WSW,246,9.4,10.4,80,0.00,CLR,,0.00,WeatherDisplay:10.37,2013-01-04 13:00:00,
2013-01-04 07:05:00,10.3,5.4,30.19,WSW,242,9.3,10.4,80,0.00,CLR,,0.00,WeatherDisplay:10.37,2013-01-04 13:05:00,
2013-01-04 07:10:00,10.4,5.2,30.19,WSW,254,9.8,12.7,79,0.00,CLR,,0.00,WeatherDisplay:10.37,2013-01-04 13:10:00,
2013-01-04 07:15:00,10.5,5.3,30.19,WSW,243,9.9,11.9,79,0.00,CLR,,0.00,WeatherDisplay:10.37,2013-01-04 13:15:00,
2013-01-04 07:20:00,10.5,5.3,30.19,WSW,243,8.6,9.2,79,0.00,CLR,,0.00,WeatherDisplay:10.37,2013-01-04 13:20:00,
2013-01-04 07:25:00,10.6,5.4,30.19,WSW,248,8.4,9.2,79,0.00,CLR,,0.00,WeatherDisplay:10.37,2013-01-04 13:25:00,
2013-01-04 07:30:00,10.6,5.4,30.19,WSW,254,7.3,9.2,79,0.00,CLR,,0.00,WeatherDisplay:10.37,2013-01-04 13:30:00,
2013-01-04 07:35:00,10.6,5.4,30.19,WSW,246,7.7,9.2,79,0.00,CLR,,0.00,WeatherDisplay:10.37,2013-01-04 13:35:00,
2013-01-04 07:40:00,10.6,5.4,30.19,WSW,247,7.7,9.2,79,0.00,CLR,,0.00,WeatherDisplay:10.37,2013-01-04 13:40:00,
2013-01-04 07:45:00,10.4,5.2,30.18,WSW,248,8.5,10.4,79,0.00,CLR,,0.00,WeatherDisplay:10.37,2013-01-04 13:45:00,
2013-01-04 07:50:00,10.2,5.0,30.18,WSW,248,8.6,9.2,79,0.00,CLR,,0.00,WeatherDisplay:10.37,2013-01-04 13:50:00,
2013-01-04 07:55:00,9.9,4.7,30.19,WSW,246,8.3,10.4,79,0.00,CLR,,0.00,WeatherDisplay:10.37,2013-01-04 13:55:00,
2013-01-04 08:00:00,9.5,4.3,30.18,WSW,251,7.4,9.2,79,0.00,CLR,,0.00,WeatherDisplay:10.37,2013-01-04 14:00:00,
2013-01-04 08:05:00,9.2,4.0,30.18,WSW,250,8.2,9.2,79,0.00,CLR,,0.00,WeatherDisplay:10.37,2013-01-04 14:05:00,
2013-01-04 08:10:00,9.2,4.0,30.18,WSW,250,8.1,9.2,79,0.00,CLR,,0.00,WeatherDisplay:10.37,2013-01-04 14:10:00,
2013-01-04 08:15:00,9.2,4.3,30.18,WSW,248,8.0,9.2,80,0.00,CLR,,0.00,WeatherDisplay:10.37,2013-01-04 14:15:00,
2013-01-04 08:20:00,9.3,4.1,30.19,WSW,242,8.0,9.7,79,0.00,CLR,,0.00,WeatherDisplay:10.37,2013-01-04 14:20:00,
2013-01-04 08:25:00,9.6,4.7,30.19,WSW,246,6.8,8.1,80,0.00,CLR,,0.00,WeatherDisplay:10.37,2013-01-04 14:25:00,
2013-01-04 08:30:00,10.2,5.0,30.19,WSW,245,7.0,8.1,79,0.00,CLR,,0.00,WeatherDisplay:10.37,2013-01-04 14:30:00,
2013-01-04 08:35:00,10.5,5.3,30.19,WSW,248,8.3,8.6,79,0.00,CLR,,0.00,WeatherDisplay:10.37,2013-01-04 14:35:00,
2013-01-04 08:40:00,10.8,5.3,30.19,WSW,250,9.4,10.4,78,0.00,CLR,,0.00,WeatherDisplay:10.37,2013-01-04 14:40:00,
2013-01-04 08:45:00,10.7,5.2,30.19,WSW,251,7.3,9.2,78,0.00,CLR,,0.00,WeatherDisplay:10.37,2013-01-04 14:45:00,
2013-01-04 08:50:00,10.3,4.8,30.19,WSW,247,8.2,9.2,78,0.00,CLR,,0.00,WeatherDisplay:10.37,2013-01-04 14:50:00,
2013-01-04 08:55:00,10.2,4.7,30.19,WSW,254,7.0,9.2,78,0.00,CLR,,0.00,WeatherDisplay:10.37,2013-01-04 14:55:00,
2013-01-04 09:00:00,10.2,4.7,30.19,WSW,254,7.4,9.2,78,0.00,CLR,,0.00,WeatherDisplay:10.37,2013-01-04 15:00:00,
2013-01-04 09:05:00,10.5,5.0,30.19,WSW,253,8.1,9.2,78,0.00,CLR,,0.00,WeatherDisplay:10.37,2013-01-04 15:05:00,
2013-01-04 09:10:00,11.0,5.5,30.19,WSW,255,6.7,8.6,78,0.00,CLR,,0.00,WeatherDisplay:10.37,2013-01-04 15:10:00,
2013-01-04 09:15:00,11.4,5.9,30.19,WSW,254,8.3,9.2,78,0.00,CLR,,0.00,WeatherDisplay:10.37,2013-01-04 15:15:00,
2013-01-04 09:20:00,11.8,6.0,30.19,WSW,247,7.1,10.4,77,0.00,CLR,,0.00,WeatherDisplay:10.37,2013-01-04 15:20:00,
2013-01-04 09:25:00,12.3,6.5,30.19,WSW,251,7.6,10.4,77,0.00,CLR,,0.00,WeatherDisplay:10.37,2013-01-04 15:25:00,
2013-01-04 09:30:00,12.8,6.9,30.20,WSW,250,6.8,9.2,77,0.00,CLR,,0.00,WeatherDisplay:10.37,2013-01-04 15:30:00,
2013-01-04 09:35:00,13.1,7.0,30.20,WSW,248,8.2,9.2,76,0.00,CLR,,0.00,WeatherDisplay:10.37,2013-01-04 15:35:00,
2013-01-04 09:40:00,13.4,7.2,30.20,WSW,249,7.9,9.2,76,0.00,CLR,,0.00,WeatherDisplay:10.37,2013-01-04 15:40:00,
2013-01-04 09:45:00,13.8,7.6,30.20,West,261,6.9,9.2,76,0.00,CLR,,0.00,WeatherDisplay:10.37,2013-01-04 15:45:00,
2013-01-04 09:50:00,14.1,7.6,30.20,WSW,257,7.0,8.1,75,0.00,CLR,,0.00,WeatherDisplay:10.37,2013-01-04 15:50:00,
2013-01-04 09:55:00,14.3,7.8,30.20,WSW,251,8.8,9.2,75,0.00,CLR,,0.00,WeatherDisplay:10.37,2013-01-04 15:55:00,
2013-01-04 10:00:00,14.7,8.2,30.20,WSW,252,7.1,9.2,75,0.00,CLR,,0.00,WeatherDisplay:10.37,2013-01-04 16:00:00,
2013-01-04 10:05:00,15.3,8.8,30.20,WSW,258,7.7,10.8,75,0.00,CLR,,0.00,WeatherDisplay:10.37,2013-01-04 16:05:00,
2013-01-04 10:10:00,15.5,8.7,30.20,WSW,252,9.1,9.7,74,0.00,CLR,,0.00,WeatherDisplay:10.37,2013-01-04 16:10:00,
2013-01-04 10:15:00,15.5,8.7,30.20,WSW,255,8.2,10.4,74,0.00,CLR,,0.00,WeatherDisplay:10.37,2013-01-04 16:15:00,
2013-01-04 10:20:00,15.6,8.8,30.20,WSW,256,8.5,10.4,74,0.00,CLR,,0.00,WeatherDisplay:10.37,2013-01-04 16:20:00,
2013-01-04 10:25:00,15.5,8.7,30.20,WSW,252,7.8,10.4,74,0.00,CLR,,0.00,WeatherDisplay:10.37,2013-01-04 16:25:00,
2013-01-04 10:30:00,15.5,8.7,30.21,WSW,245,8.9,10.4,74,0.00,CLR,,0.00,WeatherDisplay:10.37,2013-01-04 16:30:00,
2013-01-04 10:35:00,15.8,9.0,30.21,WSW,252,8.2,9.2,74,0.00,CLR,,0.00,WeatherDisplay:10.37,2013-01-04 16:35:00,
2013-01-04 10:40:00,16.1,9.3,30.21,WSW,254,8.1,9.2,74,0.00,CLR,,0.00,WeatherDisplay:10.37,2013-01-04 16:40:00,
2013-01-04 10:45:00,16.4,9.6,30.22,WSW,251,6.8,9.2,74,0.00,CLR,,0.00,WeatherDisplay:10.37,2013-01-04 16:45:00,
2013-01-04 10:50:00,16.9,9.7,30.22,WSW,253,6.3,8.1,73,0.00,CLR,,0.00,WeatherDisplay:10.37,2013-01-04 16:50:00,
2013-01-04 10:56:00,17.1,9.6,30.22,WSW,249,9.5,9.5,72,0.00,CLR,,0.00,WeatherDisplay:10.37,2013-01-04 16:56:00,
2013-01-04 11:01:00,17.4,9.6,30.22,WSW,248,9.1,12.7,71,0.00,CLR,,0.00,WeatherDisplay:10.37,2013-01-04 17:01:00,
2013-01-04 11:06:00,17.7,9.6,30.22,WSW,250,9.3,12.7,70,0.00,CLR,,0.00,WeatherDisplay:10.37,2013-01-04 17:06:00,
2013-01-04 11:11:00,17.9,9.8,30.22,WSW,254,8.7,10.4,70,0.00,CLR,,0.00,WeatherDisplay:10.37,2013-01-04 17:11:00,
2013-01-04 11:16:00,17.9,9.8,30.22,West,261,8.9,9.2,70,0.00,CLR,,0.00,WeatherDisplay:10.37,2013-01-04 17:16:00,
2013-01-04 11:21:00,17.7,9.6,30.22,WSW,246,11.2,11.5,70,0.00,CLR,,0.00,WeatherDisplay:10.37,2013-01-04 17:21:00,
2013-01-04 11:26:00,17.2,9.1,30.21,WSW,252,10.7,12.7,70,0.00,CLR,,0.00,WeatherDisplay:10.37,2013-01-04 17:26:00,
2013-01-04 11:31:00,17.3,9.5,30.21,WSW,253,7.8,9.2,71,0.00,CLR,,0.00,WeatherDisplay:10.37,2013-01-04 17:31:00,
2013-01-04 11:36:00,17.6,9.8,30.21,WSW,254,7.8,9.2,71,0.00,CLR,,0.00,WeatherDisplay:10.37,2013-01-04 17:36:00,
2013-01-04 11:41:00,17.7,9.9,30.21,West,260,9.7,10.4,71,0.00,CLR,,0.00,WeatherDisplay:10.37,2013-01-04 17:41:00,
2013-01-04 11:46:00,17.8,10.0,30.20,WSW,257,7.9,10.4,71,0.00,CLR,,0.00,WeatherDisplay:10.37,2013-01-04 17:46:00,
2013-01-04 11:51:00,18.1,10.3,30.20,WSW,252,8.8,12.7,71,0.00,CLR,,0.00,WeatherDisplay:10.37,2013-01-04 17:51:00,
2013-01-04 11:56:00,18.2,10.4,30.20,WSW,248,9.6,12.7,71,0.00,CLR,,0.00,WeatherDisplay:10.37,2013-01-04 17:56:00,
2013-01-04 12:01:00,18.4,10.6,30.20,WSW,242,11.7,13.8,71,0.00,CLR,,0.00,WeatherDisplay:10.37,2013-01-04 18:01:00,
2013-01-04 12:06:00,18.9,11.0,30.19,WSW,247,10.6,10.6,71,0.00,CLR,,0.00,WeatherDisplay:10.37,2013-01-04 18:06:00,
2013-01-04 12:11:00,19.5,11.3,30.19,WSW,248,8.7,10.4,70,0.00,CLR,,0.00,WeatherDisplay:10.37,2013-01-04 18:11:00,
2013-01-04 12:16:00,20.2,12.0,30.19,WSW,246,7.2,9.2,70,0.00,CLR,,0.00,WeatherDisplay:10.37,2013-01-04 18:16:00,
2013-01-04 12:21:00,20.7,12.1,30.19,WSW,250,7.1,9.2,69,0.00,CLR,,0.00,WeatherDisplay:10.37,2013-01-04 18:21:00,
2013-01-04 12:26:00,21.1,12.5,30.19,WSW,244,7.8,9.2,69,0.00,CLR,,0.00,WeatherDisplay:10.37,2013-01-04 18:26:00,
2013-01-04 12:31:00,21.3,12.7,30.19,WSW,257,7.2,9.2,69,0.00,CLR,,0.00,WeatherDisplay:10.37,2013-01-04 18:31:00,
2013-01-04 12:36:00,21.5,12.9,30.18,WSW,257,8.9,10.4,69,0.00,CLR,,0.00,WeatherDisplay:10.37,2013-01-04 18:36:00,
2013-01-04 12:41:00,21.7,12.8,30.18,WSW,246,9.5,10.8,68,0.00,CLR,,0.00,WeatherDisplay:10.37,2013-01-04 18:41:00,
2013-01-04 12:46:00,21.5,12.6,30.17,West,259,7.5,9.2,68,0.00,CLR,,0.00,WeatherDisplay:10.37,2013-01-04 18:46:00,
2013-01-04 12:51:00,21.2,12.3,30.17,WSW,248,10.3,11.5,68,0.00,CLR,,0.00,WeatherDisplay:10.37,2013-01-04 18:51:00,
2013-01-04 12:56:00,21.3,13.0,30.16,West,261,9.0,10.4,70,0.00,CLR,,0.00,WeatherDisplay:10.37,2013-01-04 18:56:00,
2013-01-04 13:01:00,21.6,13.3,30.16,WSW,244,7.8,9.2,70,0.00,CLR,,0.00,WeatherDisplay:10.37,2013-01-04 19:01:00,
2013-01-04 13:06:00,21.7,13.4,30.15,WSW,240,8.3,9.2,70,0.00,CLR,,0.00,WeatherDisplay:10.37,2013-01-04 19:06:00,
2013-01-04 13:11:00,22.1,13.5,30.15,WSW,253,9.1,10.4,69,0.00,CLR,,0.00,WeatherDisplay:10.37,2013-01-04 19:11:00,
2013-01-04 13:16:00,22.6,13.6,30.14,WSW,246,4.8,8.1,68,0.00,CLR,,0.00,WeatherDisplay:10.37,2013-01-04 19:16:00,
2013-01-04 13:21:00,23.3,14.3,30.14,WSW,247,5.4,6.9,68,0.00,CLR,,0.00,WeatherDisplay:10.37,2013-01-04 19:21:00,
2013-01-04 13:26:00,23.7,14.3,30.14,WSW,243,6.0,6.9,67,0.00,CLR,,0.00,WeatherDisplay:10.37,2013-01-04 19:26:00,
2013-01-04 13:31:00,23.9,14.5,30.13,WSW,248,5.2,6.9,67,0.00,CLR,,0.00,WeatherDisplay:10.37,2013-01-04 19:31:00,
2013-01-04 13:36:00,24.4,15.0,30.13,WSW,240,5.4,6.9,67,0.00,CLR,,0.00,WeatherDisplay:10.37,2013-01-04 19:36:00,
2013-01-04 13:41:00,25.1,15.0,30.13,WSW,252,6.3,8.1,65,0.00,CLR,,0.00,WeatherDisplay:10.37,2013-01-04 19:41:00,
2013-01-04 13:46:00,25.5,15.4,30.13,WSW,253,5.1,6.9,65,0.00,CLR,,0.00,WeatherDisplay:10.37,2013-01-04 19:46:00,
2013-01-04 13:51:00,26.1,15.6,30.13,WSW,254,5.2,5.8,64,0.00,CLR,,0.00,WeatherDisplay:10.37,2013-01-04 19:51:00,
2013-01-04 13:56:00,26.7,16.5,30.13,WSW,254,4.4,5.8,65,0.00,CLR,,0.00,WeatherDisplay:10.37,2013-01-04 19:56:00,
2013-01-04 14:01:00,27.4,15.7,30.13,WSW,254,5.9,6.9,61,0.00,CLR,,0.00,WeatherDisplay:10.37,2013-01-04 20:01:00,
2013-01-04 14:06:00,27.3,15.6,30.12,WSW,254,5.1,6.9,61,0.00,CLR,,0.00,WeatherDisplay:10.37,2013-01-04 20:06:00,
2013-01-04 14:11:00,27.4,16.1,30.12,WSW,254,3.7,5.8,62,0.00,CLR,,0.00,WeatherDisplay:10.37,2013-01-04 20:11:00,
2013-01-04 14:16:00,28.0,16.3,30.12,WSW,254,2.0,4.6,61,0.00,CLR,,0.00,WeatherDisplay:10.37,2013-01-04 20:16:00,
2013-01-04 14:21:00,27.9,16.2,30.12,WSW,253,6.2,6.9,61,0.00,CLR,,0.00,WeatherDisplay:10.37,2013-01-04 20:21:00,
2013-01-04 14:26:00,27.5,15.8,30.12,WSW,242,7.0,9.2,61,0.00,CLR,,0.00,WeatherDisplay:10.37,2013-01-04 20:26:00,
2013-01-04 14:31:00,27.5,16.2,30.12,WSW,242,5.7,8.1,62,0.00,CLR,,0.00,WeatherDisplay:10.37,2013-01-04 20:31:00,
2013-01-04 14:36:00,28.0,16.6,30.12,WSW,240,6.3,9.2,62,0.00,CLR,,0.00,WeatherDisplay:10.37,2013-01-04 20:36:00,
2013-01-04 14:41:00,27.4,16.1,30.12,SW,236,7.9,9.2,62,0.00,CLR,,0.00,WeatherDisplay:10.37,2013-01-04 20:41:00,
2013-01-04 14:46:00,27.5,16.5,30.12,SW,227,5.3,6.5,63,0.00,CLR,,0.00,WeatherDisplay:10.37,2013-01-04 20:46:00,
2013-01-04 14:51:00,28.0,17.0,30.12,SW,223,6.5,8.6,63,0.00,CLR,,0.00,WeatherDisplay:10.37,2013-01-04 20:51:00,
2013-01-04 14:56:00,27.5,16.2,30.12,SW,230,10.4,13.8,62,0.00,CLR,,0.00,WeatherDisplay:10.37,2013-01-04 20:56:00,
2013-01-04 15:01:00,27.4,17.2,30.12,SW,225,7.2,9.2,65,0.00,CLR,,0.00,WeatherDisplay:10.37,2013-01-04 21:01:00,
2013-01-04 15:06:00,27.7,17.5,30.12,SW,217,5.8,9.2,65,0.00,CLR,,0.00,WeatherDisplay:10.37,2013-01-04 21:06:00,
2013-01-04 15:11:00,27.5,16.5,30.12,SW,231,6.9,9.2,63,0.00,CLR,,0.00,WeatherDisplay:10.37,2013-01-04 21:11:00,
2013-01-04 15:16:00,27.4,17.2,30.13,SW,224,5.4,8.6,65,0.00,CLR,,0.00,WeatherDisplay:10.37,2013-01-04 21:16:00,
2013-01-04 15:21:00,27.6,16.3,30.12,WSW,238,9.3,9.3,62,0.00,CLR,,0.00,WeatherDisplay:10.37,2013-01-04 21:21:00,
2013-01-04 15:26:00,27.5,16.5,30.12,SW,224,7.4,9.2,63,0.00,CLR,,0.00,WeatherDisplay:10.37,2013-01-04 21:26:00,
2013-01-04 15:31:00,27.6,16.6,30.12,SW,225,5.4,5.8,63,0.00,CLR,,0.00,WeatherDisplay:10.37,2013-01-04 21:31:00,
2013-01-04 15:36:00,27.4,16.4,30.12,SW,227,4.4,5.8,63,0.00,CLR,,0.00,WeatherDisplay:10.37,2013-01-04 21:36:00,
2013-01-04 15:41:00,27.8,16.5,30.12,SW,229,5.0,6.9,62,0.00,CLR,,0.00,WeatherDisplay:10.37,2013-01-04 21:41:00,
2013-01-04 15:46:00,28.1,16.7,30.12,SW,229,5.3,6.9,62,0.00,CLR,,0.00,WeatherDisplay:10.37,2013-01-04 21:46:00,
2013-01-04 15:51:00,28.1,16.7,30.12,SW,227,5.1,5.8,62,0.00,CLR,,0.00,WeatherDisplay:10.37,2013-01-04 21:51:00,
2013-01-04 15:56:00,27.9,16.6,30.12,SW,228,5.5,6.9,62,0.00,CLR,,0.00,WeatherDisplay:10.37,2013-01-04 21:56:00,
2013-01-04 16:02:00,28.1,17.1,30.13,SW,221,7.8,8.6,63,0.00,CLR,,0.00,WeatherDisplay:10.37,2013-01-04 22:02:00,
2013-01-04 16:07:00,27.6,17.0,30.13,SSW,205,6.9,6.9,64,0.00,CLR,,0.00,WeatherDisplay:10.37,2013-01-04 22:07:00,
2013-01-04 16:12:00,27.4,17.2,30.13,SSW,213,6.2,9.2,65,0.00,CLR,,0.00,WeatherDisplay:10.37,2013-01-04 22:12:00,
2013-01-04 16:17:00,26.9,17.0,30.13,SW,219,6.5,8.1,66,0.00,CLR,,0.00,WeatherDisplay:10.37,2013-01-04 22:17:00,
2013-01-04 16:22:00,26.6,17.1,30.13,SW,219,5.5,8.1,67,0.00,CLR,,0.00,WeatherDisplay:10.37,2013-01-04 22:22:00,
2013-01-04 16:27:00,26.5,17.0,30.13,SSW,210,6.4,8.1,67,0.00,CLR,,0.00,WeatherDisplay:10.37,2013-01-04 22:27:00,
2013-01-04 16:32:00,25.9,16.4,30.13,SW,225,9.4,9.4,67,0.00,CLR,,0.00,WeatherDisplay:10.37,2013-01-04 22:32:00,
2013-01-04 16:37:00,25.2,16.1,30.13,SW,221,9.5,10.4,68,0.00,CLR,,0.00,WeatherDisplay:10.37,2013-01-04 22:37:00,
2013-01-04 16:42:00,24.9,15.8,30.13,SW,218,8.8,9.2,68,0.00,CLR,,0.00,WeatherDisplay:10.37,2013-01-04 22:42:00,
2013-01-04 16:47:00,24.7,15.6,30.13,SW,219,7.7,9.7,68,0.00,CLR,,0.00,WeatherDisplay:10.37,2013-01-04 22:47:00,
2013-01-04 16:52:00,24.4,15.7,30.13,SW,218,5.3,6.9,69,0.00,CLR,,0.00,WeatherDisplay:10.37,2013-01-04 22:52:00,
2013-01-04 16:57:00,24.0,15.3,30.13,SW,223,6.5,8.1,69,0.00,CLR,,0.00,WeatherDisplay:10.37,2013-01-04 22:57:00,
2013-01-04 17:02:00,23.8,14.8,30.13,WSW,239,8.3,10.4,68,0.00,CLR,,0.00,WeatherDisplay:10.37,2013-01-04 23:02:00,
2013-01-04 17:07:00,23.6,14.6,30.13,SW,233,6.5,8.1,68,0.00,CLR,,0.00,WeatherDisplay:10.37,2013-01-04 23:07:00,
2013-01-04 17:12:00,23.1,14.4,30.12,SW,236,5.7,9.2,69,0.00,CLR,,0.00,WeatherDisplay:10.37,2013-01-04 23:12:00,
2013-01-04 17:17:00,22.8,14.5,30.12,SW,223,7.4,9.2,70,0.00,CLR,,0.00,WeatherDisplay:10.37,2013-01-04 23:17:00,
2013-01-04 17:22:00,22.5,14.2,30.13,SW,225,6.9,9.2,70,0.00,CLR,,0.00,WeatherDisplay:10.37,2013-01-04 23:22:00,
2013-01-04 17:27:00,22.4,14.4,30.13,SW,229,8.1,9.2,71,0.00,CLR,,0.00,WeatherDisplay:10.37,2013-01-04 23:27:00,
2013-01-04 17:32:00,22.1,14.1,30.13,SW,232,8.2,10.4,71,0.00,CLR,,0.00,WeatherDisplay:10.37,2013-01-04 23:32:00,
2013-01-04 17:37:00,22.0,14.0,30.12,WSW,237,6.6,8.1,71,0.00,CLR,,0.00,WeatherDisplay:10.37,2013-01-04 23:37:00,
2013-01-04 17:42:00,21.8,13.8,30.12,WSW,238,6.8,9.2,71,0.00,CLR,,0.00,WeatherDisplay:10.37,2013-01-04 23:42:00,
2013-01-04 17:47:00,21.7,13.7,30.12,SW,228,6.7,9.2,71,0.00,CLR,,0.00,WeatherDisplay:10.37,2013-01-04 23:47:00,
2013-01-04 17:52:00,21.7,13.7,30.12,SW,236,7.0,8.1,71,0.00,CLR,,0.00,WeatherDisplay:10.37,2013-01-04 23:52:00,
2013-01-04 17:57:00,21.5,13.5,30.12,WSW,237,7.2,9.2,71,0.00,CLR,,0.00,WeatherDisplay:10.37,2013-01-04 23:57:00,
2013-01-04 18:02:00,21.3,13.4,30.12,WSW,237,6.2,8.1,71,0.00,CLR,,0.00,WeatherDisplay:10.37,2013-01-05 00:02:00,
2013-01-04 18:07:00,21.6,13.6,30.12,SW,225,7.2,9.2,71,0.00,CLR,,0.00,WeatherDisplay:10.37,2013-01-05 00:07:00,
2013-01-04 18:12:00,21.5,13.5,30.12,SW,232,5.9,6.9,71,0.00,CLR,,0.00,WeatherDisplay:10.37,2013-01-05 00:12:00,
2013-01-04 18:17:00,21.5,13.5,30.12,SW,217,7.3,9.2,71,0.00,CLR,,0.00,WeatherDisplay:10.37,2013-01-05 00:17:00,
2013-01-04 18:22:00,21.5,13.5,30.12,SW,221,7.0,9.2,71,0.00,CLR,,0.00,WeatherDisplay:10.37,2013-01-05 00:22:00,
2013-01-04 18:27:00,21.4,13.5,30.12,SW,227,4.8,6.5,71,0.00,CLR,,0.00,WeatherDisplay:10.37,2013-01-05 00:27:00,
2013-01-04 18:32:00,21.0,13.1,30.12,SW,228,5.3,6.9,71,0.00,CLR,,0.00,WeatherDisplay:10.37,2013-01-05 00:32:00,
2013-01-04 18:37:00,20.6,13.0,30.12,SW,229,6.7,8.1,72,0.00,CLR,,0.00,WeatherDisplay:10.37,2013-01-05 00:37:00,
2013-01-04 18:42:00,20.6,13.0,30.12,SW,232,7.9,9.2,72,0.00,CLR,,0.00,WeatherDisplay:10.37,2013-01-05 00:42:00,
2013-01-04 18:47:00,20.5,12.9,30.12,WSW,237,6.7,6.9,72,0.00,CLR,,0.00,WeatherDisplay:10.37,2013-01-05 00:47:00,
2013-01-04 18:52:00,20.4,13.1,30.13,SW,234,7.7,9.2,73,0.00,CLR,,0.00,WeatherDisplay:10.37,2013-01-05 00:52:00,
2013-01-04 18:57:00,20.2,12.9,30.13,WSW,238,7.3,9.2,73,0.00,CLR,,0.00,WeatherDisplay:10.37,2013-01-05 00:57:00,
2013-01-04 19:02:00,20.0,13.0,30.13,SW,236,7.8,8.1,74,0.00,CLR,,0.00,WeatherDisplay:10.37,2013-01-05 01:02:00,
2013-01-04 19:07:00,20.0,13.0,30.12,WSW,237,7.5,9.2,74,0.00,CLR,,0.00,WeatherDisplay:10.37,2013-01-05 01:07:00,
2013-01-04 19:12:00,19.9,13.3,30.12,SW,226,6.3,8.1,75,0.00,CLR,,0.00,WeatherDisplay:10.37,2013-01-05 01:12:00,
2013-01-04 19:17:00,20.1,13.4,30.12,SW,236,9.0,11.5,75,0.00,CLR,,0.00,WeatherDisplay:10.37,2013-01-05 01:17:00,
2013-01-04 19:22:00,20.2,13.2,30.12,SW,234,9.0,11.5,74,0.00,CLR,,0.00,WeatherDisplay:10.37,2013-01-05 01:22:00,
2013-01-04 19:27:00,20.0,13.3,30.12,SW,234,9.4,10.8,75,0.00,CLR,,0.00,WeatherDisplay:10.37,2013-01-05 01:27:00,
2013-01-04 19:32:00,19.8,13.2,30.12,SW,226,9.0,9.2,75,0.00,CLR,,0.00,WeatherDisplay:10.37,2013-01-05 01:32:00,
2013-01-04 19:37:00,19.8,12.8,30.12,SW,233,8.4,9.7,74,0.00,CLR,,0.00,WeatherDisplay:10.37,2013-01-05 01:37:00,
2013-01-04 19:42:00,19.4,12.8,30.12,SW,231,9.6,11.5,75,0.00,CLR,,0.00,WeatherDisplay:10.37,2013-01-05 01:42:00,
2013-01-04 19:47:00,19.3,12.7,30.12,SW,235,9.7,11.5,75,0.00,CLR,,0.00,WeatherDisplay:10.37,2013-01-05 01:47:00,
2013-01-04 19:52:00,19.1,12.5,30.12,WSW,239,9.4,13.0,75,0.00,CLR,,0.00,WeatherDisplay:10.37,2013-01-05 01:52:00,
2013-01-04 19:57:00,19.2,12.6,30.12,SW,230,10.7,11.9,75,0.00,CLR,,0.00,WeatherDisplay:10.37,2013-01-05 01:57:00,
2013-01-04 20:02:00,18.9,12.3,30.12,WSW,238,10.3,10.4,75,0.00,CLR,,0.00,WeatherDisplay:10.37,2013-01-05 02:02:00,
2013-01-04 20:07:00,18.5,11.9,30.12,SW,229,11.0,13.8,75,0.00,CLR,,0.00,WeatherDisplay:10.37,2013-01-05 02:07:00,
2013-01-04 20:12:00,18.3,11.7,30.11,WSW,244,8.9,11.5,75,0.00,CLR,,0.00,WeatherDisplay:10.37,2013-01-05 02:12:00,
2013-01-04 20:17:00,18.1,11.5,30.11,WSW,241,9.6,11.9,75,0.00,CLR,,0.00,WeatherDisplay:10.37,2013-01-05 02:17:00,
2013-01-04 20:22:00,17.9,11.6,30.11,WSW,241,9.2,9.2,76,0.00,CLR,,0.00,WeatherDisplay:10.37,2013-01-05 02:22:00,
2013-01-04 20:27:00,17.7,11.4,30.11,WSW,238,7.9,10.4,76,0.00,CLR,,0.00,WeatherDisplay:10.37,2013-01-05 02:27:00,
2013-01-04 20:32:00,17.5,11.5,30.10,WSW,237,6.5,8.1,77,0.00,CLR,,0.00,WeatherDisplay:10.37,2013-01-05 02:32:00,
2013-01-04 20:38:00,17.3,11.3,30.10,WSW,238,6.6,8.1,77,0.00,CLR,,0.00,WeatherDisplay:10.37,2013-01-05 02:38:00,
2013-01-04 20:43:00,17.4,11.4,30.10,WSW,241,6.1,6.9,77,0.00,CLR,,0.00,WeatherDisplay:10.37,2013-01-05 02:43:00,
2013-01-04 20:48:00,17.4,11.4,30.10,WSW,240,7.0,9.2,77,0.00,CLR,,0.00,WeatherDisplay:10.37,2013-01-05 02:48:00,
2013-01-04 20:53:00,17.1,11.1,30.10,WSW,237,7.7,8.1,77,0.00,CLR,,0.00,WeatherDisplay:10.37,2013-01-05 02:53:00,
2013-01-04 20:58:00,17.4,11.4,30.09,WSW,240,8.8,9.2,77,0.00,CLR,,0.00,WeatherDisplay:10.37,2013-01-05 02:58:00,
2013-01-04 21:03:00,17.3,11.3,30.10,SW,234,8.1,9.2,77,0.00,CLR,,0.00,WeatherDisplay:10.37,2013-01-05 03:03:00,
2013-01-04 21:08:00,17.3,11.3,30.10,WSW,240,9.0,10.4,77,0.00,CLR,,0.00,WeatherDisplay:10.37,2013-01-05 03:08:00,
2013-01-04 21:13:00,17.1,11.1,30.10,WSW,242,9.5,9.5,77,0.00,CLR,,0.00,WeatherDisplay:10.37,2013-01-05 03:13:00,
2013-01-04 21:18:00,16.9,10.9,30.10,WSW,243,6.2,8.1,77,0.00,CLR,,0.00,WeatherDisplay:10.37,2013-01-05 03:18:00,
2013-01-04 21:23:00,16.9,10.9,30.10,WSW,243,4.5,8.1,77,0.00,CLR,,0.00,WeatherDisplay:10.37,2013-01-05 03:23:00,
2013-01-04 21:28:00,16.8,10.8,30.10,WSW,243,4.4,6.9,77,0.00,CLR,,0.00,WeatherDisplay:10.37,2013-01-05 03:28:00,
2013-01-04 21:33:00,16.3,10.1,30.10,WSW,243,4.0,4.6,76,0.00,CLR,,0.00,WeatherDisplay:10.37,2013-01-05 03:33:00,
2013-01-04 21:38:00,15.6,9.7,30.10,WSW,243,3.7,4.6,77,0.00,CLR,,0.00,WeatherDisplay:10.37,2013-01-05 03:38:00,
2013-01-04 21:43:00,15.1,9.5,30.09,WSW,243,2.4,3.5,78,0.00,CLR,,0.00,WeatherDisplay:10.37,2013-01-05 03:43:00,
2013-01-04 21:48:00,14.5,8.9,30.09,WSW,243,2.3,3.5,78,0.00,CLR,,0.00,WeatherDisplay:10.37,2013-01-05 03:48:00,
2013-01-04 21:53:00,14.1,8.5,30.09,WSW,243,2.3,3.5,78,0.00,CLR,,0.00,WeatherDisplay:10.37,2013-01-05 03:53:00,
2013-01-04 21:58:00,12.8,7.2,30.09,WSW,243,3.6,4.6,78,0.00,CLR,,0.00,WeatherDisplay:10.37,2013-01-05 03:58:00,
2013-01-04 22:03:00,12.9,8.2,30.09,WSW,243,2.2,3.5,81,0.00,CLR,,0.00,WeatherDisplay:10.37,2013-01-05 04:03:00,
2013-01-04 22:08:00,13.5,9.0,30.10,WSW,243,3.1,3.5,82,0.00,CLR,,0.00,WeatherDisplay:10.37,2013-01-05 04:08:00,
2013-01-04 22:13:00,13.9,9.1,30.10,WSW,243,2.9,3.5,81,0.00,CLR,,0.00,WeatherDisplay:10.37,2013-01-05 04:13:00,
2013-01-04 22:18:00,13.8,8.8,30.10,WSW,243,3.9,4.6,80,0.00,CLR,,0.00,WeatherDisplay:10.37,2013-01-05 04:18:00,
2013-01-04 22:23:00,14.1,9.6,30.10,WSW,243,2.3,3.5,82,0.00,CLR,,0.00,WeatherDisplay:10.37,2013-01-05 04:23:00,
2013-01-04 22:28:00,14.5,9.7,30.10,WSW,243,2.0,3.5,81,0.00,CLR,,0.00,WeatherDisplay:10.37,2013-01-05 04:28:00,
2013-01-04 22:33:00,14.7,9.9,30.10,WSW,243,2.4,3.5,81,0.00,CLR,,0.00,WeatherDisplay:10.37,2013-01-05 04:33:00,
2013-01-04 22:38:00,14.9,10.1,30.09,WSW,243,3.7,4.6,81,0.00,CLR,,0.00,WeatherDisplay:10.37,2013-01-05 04:38:00,
2013-01-04 22:43:00,14.9,9.8,30.09,WSW,243,3.4,4.6,80,0.00,CLR,,0.00,WeatherDisplay:10.37,2013-01-05 04:43:00,
2013-01-04 22:48:00,15.0,9.9,30.09,WSW,243,3.1,4.3,80,0.00,CLR,,0.00,WeatherDisplay:10.37,2013-01-05 04:48:00,
2013-01-04 22:53:00,15.2,10.1,30.09,WSW,243,3.7,5.8,80,0.00,CLR,,0.00,WeatherDisplay:10.37,2013-01-05 04:53:00,
2013-01-04 22:58:00,15.1,10.0,30.09,WSW,243,3.1,5.8,80,0.00,CLR,,0.00,WeatherDisplay:10.37,2013-01-05 04:58:00,
2013-01-04 23:01:00,14.9,9.8,30.09,WSW,243,4.3,4.6,80,0.00,CLR,,0.00,WeatherDisplay:10.37,2013-01-05 05:01:00,
2013-01-04 23:06:00,14.6,9.8,30.09,WSW,243,3.8,4.6,81,0.00,CLR,,0.00,WeatherDisplay:10.37,2013-01-05 05:06:00,
2013-01-04 23:11:00,14.8,10.0,30.09,WSW,243,4.2,4.6,81,0.00,CLR,,0.00,WeatherDisplay:10.37,2013-01-05 05:11:00,
2013-01-04 23:16:00,14.7,9.9,30.09,WSW,243,3.0,3.5,81,0.00,CLR,,0.00,WeatherDisplay:10.37,2013-01-05 05:16:00,
2013-01-04 23:21:00,14.6,9.8,30.09,WSW,243,2.2,3.5,81,0.00,CLR,,0.00,WeatherDisplay:10.37,2013-01-05 05:21:00,
2013-01-04 23:26:00,14.7,9.9,30.09,WSW,243,2.2,3.2,81,0.00,CLR,,0.00,WeatherDisplay:10.37,2013-01-05 05:26:00,
2013-01-04 23:31:00,14.7,9.9,30.09,WSW,243,3.1,4.6,81,0.00,CLR,,0.00,WeatherDisplay:10.37,2013-01-05 05:31:00,
2013-01-04 23:36:00,14.7,9.9,30.08,WSW,243,3.5,4.6,81,0.00,CLR,,0.00,WeatherDisplay:10.37,2013-01-05 05:36:00,
2013-01-04 23:41:00,14.9,10.1,30.08,WSW,243,2.8,3.5,81,0.00,CLR,,0.00,WeatherDisplay:10.37,2013-01-05 05:41:00,
2013-01-04 23:46:00,15.1,10.3,30.09,WSW,243,3.8,5.8,81,0.00,CLR,,0.00,WeatherDisplay:10.37,2013-01-05 05:46:00,
2013-01-04 23:51:00,15.0,9.9,30.09,WSW,243,4.1,5.8,80,0.00,CLR,,0.00,WeatherDisplay:10.37,2013-01-05 05:51:00,
2013-01-04 23:56:00,15.5,10.7,30.08,WSW,243,4.4,5.8,81,0.00,CLR,,0.00,WeatherDisplay:10.37,2013-01-05 05:56:00,